Hlavní strana
METAR-TAF:

METAR-TAF

Letiště :

Salem-Leckrone Airport

Salem, Illinois, Spojené státy americké

zeměpisná šířka: 38-38-34N, zeměpisná délka: 088-57-51W, výška: 175 m

Aktuální stav počasí

Zpráva byla vytvořena před 19 minutami, v 22:15 UTC
Severoseverozápadní vítr 6 kt
Teplota 9°C
Vlhkost vzduchu 53%
Tlak 1028 hPa
Viditelnost: 16.1 km
Polojasno ve výšce 4300 ft

METAR: KSLO 252215Z AUTO 34006KT 10SM SCT043 09/00 A3035 RMK AO2 T00860002

Čas: 16:34 (22:34 UTC)


TAF: chybějící

Stav a předpovědi počasí z více než 4 000 letišť (zprávy METAR a TAF).

Červené a žluté tečky na mapě představují dostupné meteorologické stanice.

Když kurzor umístíte na tečku, zobrazí se název stanice.

Pak kliknutím zobrazíte stav a předpověď počasí.

Chcete-li změnit mapu, kliknutím na zelené tlačítko se znaménkem +mapu přiblížíte, kliknutím na zelené tlačítko se znaménkem – mapu oddálíte a kliknutím na zelené šipky přejdete na sousední mapy.


METAR-TAF: